sensor_id;sensor_type;location;lat;lon;timestamp;pressure;altitude;pressure_sealevel;temperature;humidity
10852;BME280;5479;52.046;6.314;2023-05-21T00:02:23;101764.38;;;15.56;100.00
10852;BME280;5479;52.046;6.314;2023-05-21T00:04:51;101765.88;;;15.60;100.00
10852;BME280;5479;52.046;6.314;2023-05-21T00:07:19;101762.84;;;15.52;100.00
10852;BME280;5479;52.046;6.314;2023-05-21T00:09:47;101763.59;;;15.54;100.00
10852;BME280;5479;52.046;6.314;2023-05-21T00:12:16;101760.53;;;15.60;100.00
10852;BME280;5479;52.046;6.314;2023-05-21T00:14:44;101762.47;;;15.58;100.00
10852;BME280;5479;52.046;6.314;2023-05-21T00:17:12;101756.19;;;15.59;100.00
10852;BME280;5479;52.046;6.314;2023-05-21T00:19:39;101760.94;;;15.54;100.00
10852;BME280;5479;52.046;6.314;2023-05-21T00:22:07;101759.63;;;15.47;100.00
10852;BME280;5479;52.046;6.314;2023-05-21T00:24:35;101755.16;;;15.48;100.00
10852;BME280;5479;52.046;6.314;2023-05-21T00:27:04;101754.78;;;15.54;100.00
10852;BME280;5479;52.046;6.314;2023-05-21T00:29:33;101741.69;;;15.49;100.00
10852;BME280;5479;52.046;6.314;2023-05-21T00:32:01;101744.84;;;15.56;100.00
10852;BME280;5479;52.046;6.314;2023-05-21T00:34:28;101744.53;;;15.60;100.00
10852;BME280;5479;52.046;6.314;2023-05-21T00:36:56;101739.56;;;15.54;100.00
10852;BME280;5479;52.046;6.314;2023-05-21T00:39:27;101735.78;;;15.58;100.00
10852;BME280;5479;52.046;6.314;2023-05-21T00:41:55;101743.22;;;15.53;100.00
10852;BME280;5479;52.046;6.314;2023-05-21T00:44:23;101732.00;;;15.48;100.00
10852;BME280;5479;52.046;6.314;2023-05-21T00:46:53;101730.38;;;15.46;100.00
10852;BME280;5479;52.046;6.314;2023-05-21T00:49:22;101734.81;;;15.45;100.00
10852;BME280;5479;52.046;6.314;2023-05-21T00:51:49;101736.63;;;15.45;100.00
10852;BME280;5479;52.046;6.314;2023-05-21T00:54:18;101736.94;;;15.40;100.00
10852;BME280;5479;52.046;6.314;2023-05-21T00:56:46;101725.69;;;15.49;100.00
10852;BME280;5479;52.046;6.314;2023-05-21T00:59:15;101722.25;;;15.47;100.00
10852;BME280;5479;52.046;6.314;2023-05-21T01:01:43;101725.19;;;15.43;100.00
10852;BME280;5479;52.046;6.314;2023-05-21T01:04:13;101723.19;;;15.46;100.00
10852;BME280;5479;52.046;6.314;2023-05-21T01:06:42;101723.91;;;15.62;100.00
10852;BME280;5479;52.046;6.314;2023-05-21T01:09:09;101730.97;;;15.63;100.00
10852;BME280;5479;52.046;6.314;2023-05-21T01:11:40;101727.97;;;15.55;100.00
10852;BME280;5479;52.046;6.314;2023-05-21T01:14:11;101723.97;;;15.48;100.00
10852;BME280;5479;52.046;6.314;2023-05-21T01:16:42;101724.53;;;15.53;100.00
10852;BME280;5479;52.046;6.314;2023-05-21T01:19:16;101724.34;;;15.56;100.00
10852;BME280;5479;52.046;6.314;2023-05-21T01:21:46;101721.19;;;15.50;100.00
10852;BME280;5479;52.046;6.314;2023-05-21T01:24:17;101718.06;;;15.43;100.00
10852;BME280;5479;52.046;6.314;2023-05-21T01:26:45;101713.66;;;15.42;100.00
10852;BME280;5479;52.046;6.314;2023-05-21T01:29:13;101707.97;;;15.48;100.00
10852;BME280;5479;52.046;6.314;2023-05-21T01:31:55;101713.00;;;15.39;100.00
10852;BME280;5479;52.046;6.314;2023-05-21T01:34:29;101707.78;;;15.37;100.00
10852;BME280;5479;52.046;6.314;2023-05-21T01:37:04;101718.75;;;15.33;100.00
10852;BME280;5479;52.046;6.314;2023-05-21T01:39:37;101705.09;;;15.37;100.00
10852;BME280;5479;52.046;6.314;2023-05-21T01:42:08;101712.81;;;15.28;100.00
10852;BME280;5479;52.046;6.314;2023-05-21T01:44:37;101702.66;;;15.20;100.00
10852;BME280;5479;52.046;6.314;2023-05-21T01:47:06;101711.22;;;15.25;100.00
10852;BME280;5479;52.046;6.314;2023-05-21T01:49:36;101698.94;;;15.23;100.00
10852;BME280;5479;52.046;6.314;2023-05-21T01:52:05;101699.22;;;15.18;100.00
10852;BME280;5479;52.046;6.314;2023-05-21T01:54:33;101702.47;;;15.23;100.00
10852;BME280;5479;52.046;6.314;2023-05-21T01:57:02;101697.69;;;15.28;100.00
10852;BME280;5479;52.046;6.314;2023-05-21T01:59:33;101700.34;;;15.28;100.00
10852;BME280;5479;52.046;6.314;2023-05-21T02:02:02;101702.84;;;15.17;100.00
10852;BME280;5479;52.046;6.314;2023-05-21T02:04:30;101699.63;;;15.12;100.00
10852;BME280;5479;52.046;6.314;2023-05-21T02:06:58;101701.91;;;15.18;100.00
10852;BME280;5479;52.046;6.314;2023-05-21T02:09:27;101697.56;;;15.03;100.00
10852;BME280;5479;52.046;6.314;2023-05-21T02:11:55;101702.22;;;14.99;100.00
10852;BME280;5479;52.046;6.314;2023-05-21T02:14:25;101696.13;;;14.97;100.00
10852;BME280;5479;52.046;6.314;2023-05-21T02:16:53;101703.34;;;14.95;100.00
10852;BME280;5479;52.046;6.314;2023-05-21T02:19:21;101705.84;;;14.84;100.00
10852;BME280;5479;52.046;6.314;2023-05-21T02:21:49;101692.59;;;14.83;100.00
10852;BME280;5479;52.046;6.314;2023-05-21T02:24:17;101690.25;;;14.78;100.00
10852;BME280;5479;52.046;6.314;2023-05-21T02:26:44;101683.97;;;14.65;100.00
10852;BME280;5479;52.046;6.314;2023-05-21T02:29:14;101688.63;;;14.62;100.00
10852;BME280;5479;52.046;6.314;2023-05-21T02:31:43;101693.09;;;14.61;100.00
10852;BME280;5479;52.046;6.314;2023-05-21T02:34:11;101685.19;;;14.60;100.00
10852;BME280;5479;52.046;6.314;2023-05-21T02:36:39;101680.22;;;14.54;100.00
10852;BME280;5479;52.046;6.314;2023-05-21T02:39:07;101679.38;;;14.53;100.00
10852;BME280;5479;52.046;6.314;2023-05-21T02:41:35;101678.34;;;14.41;100.00
10852;BME280;5479;52.046;6.314;2023-05-21T02:44:04;101676.50;;;14.42;100.00
10852;BME280;5479;52.046;6.314;2023-05-21T02:46:32;101685.38;;;14.42;100.00
10852;BME280;5479;52.046;6.314;2023-05-21T02:49:02;101683.84;;;14.38;100.00
10852;BME280;5479;52.046;6.314;2023-05-21T02:51:30;101681.38;;;14.35;100.00
10852;BME280;5479;52.046;6.314;2023-05-21T02:53:58;101688.03;;;14.42;100.00
10852;BME280;5479;52.046;6.314;2023-05-21T02:56:25;101681.94;;;14.40;100.00
10852;BME280;5479;52.046;6.314;2023-05-21T02:58:55;101678.72;;;14.35;100.00
10852;BME280;5479;52.046;6.314;2023-05-21T03:01:22;101677.09;;;14.33;100.00
10852;BME280;5479;52.046;6.314;2023-05-21T03:03:50;101675.81;;;14.24;100.00
10852;BME280;5479;52.046;6.314;2023-05-21T03:06:19;101681.69;;;14.29;100.00
10852;BME280;5479;52.046;6.314;2023-05-21T03:08:47;101675.03;;;14.22;100.00
10852;BME280;5479;52.046;6.314;2023-05-21T03:11:17;101676.34;;;14.15;100.00
10852;BME280;5479;52.046;6.314;2023-05-21T03:13:45;101669.41;;;14.13;100.00
10852;BME280;5479;52.046;6.314;2023-05-21T03:16:19;101673.50;;;14.18;100.00
10852;BME280;5479;52.046;6.314;2023-05-21T03:18:48;101674.72;;;14.13;100.00
10852;BME280;5479;52.046;6.314;2023-05-21T03:21:15;101671.41;;;14.09;100.00
10852;BME280;5479;52.046;6.314;2023-05-21T03:23:45;101669.13;;;14.17;100.00
10852;BME280;5479;52.046;6.314;2023-05-21T03:26:13;101662.09;;;14.16;100.00
10852;BME280;5479;52.046;6.314;2023-05-21T03:28:42;101670.06;;;14.16;100.00
10852;BME280;5479;52.046;6.314;2023-05-21T03:31:10;101664.75;;;14.16;100.00
10852;BME280;5479;52.046;6.314;2023-05-21T03:33:38;101670.25;;;14.13;100.00
10852;BME280;5479;52.046;6.314;2023-05-21T03:36:06;101670.44;;;13.96;100.00
10852;BME280;5479;52.046;6.314;2023-05-21T03:38:34;101672.88;;;13.99;100.00
10852;BME280;5479;52.046;6.314;2023-05-21T03:41:03;101672.22;;;13.96;100.00
10852;BME280;5479;52.046;6.314;2023-05-21T03:43:31;101679.94;;;14.00;100.00
10852;BME280;5479;52.046;6.314;2023-05-21T03:46:00;101676.59;;;13.97;100.00
10852;BME280;5479;52.046;6.314;2023-05-21T03:48:28;101675.75;;;13.96;100.00
10852;BME280;5479;52.046;6.314;2023-05-21T03:50:56;101667.94;;;13.93;100.00
10852;BME280;5479;52.046;6.314;2023-05-21T03:53:25;101674.19;;;13.92;100.00
10852;BME280;5479;52.046;6.314;2023-05-21T03:55:54;101671.19;;;13.98;100.00
10852;BME280;5479;52.046;6.314;2023-05-21T03:58:23;101671.53;;;13.92;100.00
10852;BME280;5479;52.046;6.314;2023-05-21T04:00:52;101663.84;;;13.87;100.00
10852;BME280;5479;52.046;6.314;2023-05-21T04:03:20;101662.78;;;13.90;100.00
10852;BME280;5479;52.046;6.314;2023-05-21T04:05:47;101669.47;;;13.97;100.00
10852;BME280;5479;52.046;6.314;2023-05-21T04:08:16;101667.94;;;13.93;100.00
10852;BME280;5479;52.046;6.314;2023-05-21T04:10:44;101671.91;;;13.86;100.00
10852;BME280;5479;52.046;6.314;2023-05-21T04:13:12;101668.28;;;13.87;100.00
10852;BME280;5479;52.046;6.314;2023-05-21T04:15:41;101673.81;;;13.84;100.00
10852;BME280;5479;52.046;6.314;2023-05-21T04:18:10;101682.00;;;13.95;100.00
10852;BME280;5479;52.046;6.314;2023-05-21T04:20:39;101684.28;;;13.87;100.00
10852;BME280;5479;52.046;6.314;2023-05-21T04:23:07;101684.00;;;13.91;100.00
10852;BME280;5479;52.046;6.314;2023-05-21T04:25:35;101684.41;;;14.00;100.00
10852;BME280;5479;52.046;6.314;2023-05-21T04:28:06;101690.69;;;13.99;100.00
10852;BME280;5479;52.046;6.314;2023-05-21T04:30:34;101683.75;;;13.96;100.00
10852;BME280;5479;52.046;6.314;2023-05-21T04:33:04;101688.78;;;14.01;100.00
10852;BME280;5479;52.046;6.314;2023-05-21T04:35:32;101690.69;;;13.99;100.00
10852;BME280;5479;52.046;6.314;2023-05-21T04:38:00;101696.84;;;13.99;100.00
10852;BME280;5479;52.046;6.314;2023-05-21T04:40:31;101693.19;;;14.02;100.00
10852;BME280;5479;52.046;6.314;2023-05-21T04:42:59;101689.66;;;14.01;100.00
10852;BME280;5479;52.046;6.314;2023-05-21T04:45:27;101695.16;;;13.98;100.00
10852;BME280;5479;52.046;6.314;2023-05-21T04:47:55;101699.50;;;13.99;100.00
10852;BME280;5479;52.046;6.314;2023-05-21T04:50:27;101695.72;;;14.03;100.00
10852;BME280;5479;52.046;6.314;2023-05-21T04:52:56;101689.25;;;14.07;100.00
10852;BME280;5479;52.046;6.314;2023-05-21T04:55:24;101686.81;;;14.18;100.00
10852;BME280;5479;52.046;6.314;2023-05-21T04:57:53;101687.00;;;14.15;100.00
10852;BME280;5479;52.046;6.314;2023-05-21T05:00:20;101686.25;;;14.13;100.00
10852;BME280;5479;52.046;6.314;2023-05-21T05:02:51;101689.66;;;14.15;100.00
10852;BME280;5479;52.046;6.314;2023-05-21T05:05:19;101684.16;;;14.18;100.00
10852;BME280;5479;52.046;6.314;2023-05-21T05:07:48;101694.44;;;14.24;100.00
10852;BME280;5479;52.046;6.314;2023-05-21T05:10:16;101686.16;;;14.29;100.00
10852;BME280;5479;52.046;6.314;2023-05-21T05:12:44;101683.69;;;14.26;100.00
10852;BME280;5479;52.046;6.314;2023-05-21T05:15:12;101677.56;;;14.39;100.00
10852;BME280;5479;52.046;6.314;2023-05-21T05:17:40;101674.69;;;14.42;100.00
10852;BME280;5479;52.046;6.314;2023-05-21T05:20:10;101676.63;;;14.55;100.00
10852;BME280;5479;52.046;6.314;2023-05-21T05:22:38;101672.91;;;14.43;100.00
10852;BME280;5479;52.046;6.314;2023-05-21T05:25:08;101665.09;;;14.54;100.00
10852;BME280;5479;52.046;6.314;2023-05-21T05:27:36;101670.91;;;14.61;100.00
10852;BME280;5479;52.046;6.314;2023-05-21T05:30:06;101672.06;;;14.71;100.00
10852;BME280;5479;52.046;6.314;2023-05-21T05:32:34;101674.53;;;14.74;100.00
10852;BME280;5479;52.046;6.314;2023-05-21T05:35:03;101668.16;;;14.76;100.00
10852;BME280;5479;52.046;6.314;2023-05-21T05:37:31;101670.72;;;14.64;100.00
10852;BME280;5479;52.046;6.314;2023-05-21T05:39:59;101670.25;;;14.71;100.00
10852;BME280;5479;52.046;6.314;2023-05-21T05:42:28;101673.56;;;14.75;100.00
10852;BME280;5479;52.046;6.314;2023-05-21T05:44:56;101670.16;;;14.87;100.00
10852;BME280;5479;52.046;6.314;2023-05-21T05:47:25;101675.22;;;14.63;100.00
10852;BME280;5479;52.046;6.314;2023-05-21T05:49:52;101670.16;;;14.59;100.00
10852;BME280;5479;52.046;6.314;2023-05-21T05:52:20;101670.44;;;14.54;100.00
10852;BME280;5479;52.046;6.314;2023-05-21T05:54:48;101677.84;;;14.77;100.00
10852;BME280;5479;52.046;6.314;2023-05-21T05:57:17;101671.28;;;14.83;100.00
10852;BME280;5479;52.046;6.314;2023-05-21T05:59:46;101670.97;;;15.01;100.00
10852;BME280;5479;52.046;6.314;2023-05-21T06:02:14;101670.47;;;15.09;100.00
10852;BME280;5479;52.046;6.314;2023-05-21T06:04:45;101668.66;;;15.09;100.00
10852;BME280;5479;52.046;6.314;2023-05-21T06:07:13;101673.91;;;15.11;100.00
10852;BME280;5479;52.046;6.314;2023-05-21T06:09:41;101667.41;;;15.15;100.00
10852;BME280;5479;52.046;6.314;2023-05-21T06:12:09;101673.09;;;15.23;100.00
10852;BME280;5479;52.046;6.314;2023-05-21T06:14:37;101663.19;;;15.25;100.00
10852;BME280;5479;52.046;6.314;2023-05-21T06:17:06;101669.31;;;15.13;100.00
10852;BME280;5479;52.046;6.314;2023-05-21T06:19:34;101670.69;;;15.06;100.00
10852;BME280;5479;52.046;6.314;2023-05-21T06:22:02;101668.66;;;15.09;100.00
10852;BME280;5479;52.046;6.314;2023-05-21T06:24:30;101667.03;;;15.21;100.00
10852;BME280;5479;52.046;6.314;2023-05-21T06:26:58;101671.75;;;15.30;100.00
10852;BME280;5479;52.046;6.314;2023-05-21T06:29:26;101670.63;;;15.20;100.00
10852;BME280;5479;52.046;6.314;2023-05-21T06:31:54;101672.03;;;15.40;100.00
10852;BME280;5479;52.046;6.314;2023-05-21T06:34:23;101671.28;;;15.38;100.00
10852;BME280;5479;52.046;6.314;2023-05-21T06:36:52;101664.19;;;15.51;100.00
10852;BME280;5479;52.046;6.314;2023-05-21T06:39:19;101666.25;;;15.60;100.00
10852;BME280;5479;52.046;6.314;2023-05-21T06:41:47;101661.31;;;15.93;100.00
10852;BME280;5479;52.046;6.314;2023-05-21T06:44:15;101674.56;;;15.95;100.00
10852;BME280;5479;52.046;6.314;2023-05-21T06:46:44;101663.91;;;16.20;100.00
10852;BME280;5479;52.046;6.314;2023-05-21T06:49:12;101666.94;;;16.53;100.00
10852;BME280;5479;52.046;6.314;2023-05-21T06:51:41;101663.19;;;16.68;100.00
10852;BME280;5479;52.046;6.314;2023-05-21T06:54:09;101655.78;;;16.84;100.00
10852;BME280;5479;52.046;6.314;2023-05-21T06:56:37;101654.44;;;17.03;100.00
10852;BME280;5479;52.046;6.314;2023-05-21T06:59:05;101660.91;;;17.24;100.00
10852;BME280;5479;52.046;6.314;2023-05-21T07:01:33;101654.97;;;17.31;100.00
10852;BME280;5479;52.046;6.314;2023-05-21T07:04:01;101648.69;;;17.56;100.00
10852;BME280;5479;52.046;6.314;2023-05-21T07:06:29;101651.97;;;17.83;100.00
10852;BME280;5479;52.046;6.314;2023-05-21T07:08:59;101648.88;;;18.12;100.00
10852;BME280;5479;52.046;6.314;2023-05-21T07:11:27;101645.13;;;18.25;100.00
10852;BME280;5479;52.046;6.314;2023-05-21T07:13:57;101645.25;;;18.46;100.00
10852;BME280;5479;52.046;6.314;2023-05-21T07:16:26;101638.75;;;18.61;100.00
10852;BME280;5479;52.046;6.314;2023-05-21T07:18:54;101637.63;;;17.95;100.00
10852;BME280;5479;52.046;6.314;2023-05-21T07:21:22;101641.56;;;18.02;100.00
10852;BME280;5479;52.046;6.314;2023-05-21T07:23:51;101630.56;;;18.51;100.00
10852;BME280;5479;52.046;6.314;2023-05-21T07:26:20;101634.19;;;18.73;100.00
10852;BME280;5479;52.046;6.314;2023-05-21T07:28:48;101628.63;;;18.64;100.00
10852;BME280;5479;52.046;6.314;2023-05-21T07:31:16;101621.53;;;18.86;100.00
10852;BME280;5479;52.046;6.314;2023-05-21T07:33:44;101623.84;;;18.68;100.00
10852;BME280;5479;52.046;6.314;2023-05-21T07:36:12;101629.44;;;18.87;100.00
10852;BME280;5479;52.046;6.314;2023-05-21T07:38:39;101628.50;;;18.88;100.00
10852;BME280;5479;52.046;6.314;2023-05-21T07:41:07;101627.84;;;18.96;100.00
10852;BME280;5479;52.046;6.314;2023-05-21T07:43:37;101620.69;;;18.63;100.00
10852;BME280;5479;52.046;6.314;2023-05-21T07:46:05;101631.03;;;18.79;100.00
10852;BME280;5479;52.046;6.314;2023-05-21T07:48:33;101635.19;;;18.94;100.00
10852;BME280;5479;52.046;6.314;2023-05-21T07:51:00;101626.44;;;19.66;100.00
10852;BME280;5479;52.046;6.314;2023-05-21T07:53:29;101618.59;;;19.43;100.00
10852;BME280;5479;52.046;6.314;2023-05-21T07:55:58;101618.34;;;19.35;100.00
10852;BME280;5479;52.046;6.314;2023-05-21T07:58:26;101618.88;;;19.28;100.00
10852;BME280;5479;52.046;6.314;2023-05-21T08:00:58;101621.13;;;19.01;100.00
10852;BME280;5479;52.046;6.314;2023-05-21T08:03:26;101617.13;;;19.50;100.00
10852;BME280;5479;52.046;6.314;2023-05-21T08:05:56;101615.47;;;19.90;100.00
10852;BME280;5479;52.046;6.314;2023-05-21T08:08:24;101612.22;;;20.68;100.00
10852;BME280;5479;52.046;6.314;2023-05-21T08:10:52;101609.47;;;20.98;99.04
10852;BME280;5479;52.046;6.314;2023-05-21T08:13:20;101603.88;;;21.20;94.22
10852;BME280;5479;52.046;6.314;2023-05-21T08:15:49;101599.34;;;21.30;93.84
10852;BME280;5479;52.046;6.314;2023-05-21T08:18:18;101608.34;;;21.00;95.54
10852;BME280;5479;52.046;6.314;2023-05-21T08:20:46;101609.97;;;20.73;96.06
10852;BME280;5479;52.046;6.314;2023-05-21T08:23:14;101612.41;;;20.45;99.98
10852;BME280;5479;52.046;6.314;2023-05-21T08:25:42;101616.03;;;20.65;96.71
10852;BME280;5479;52.046;6.314;2023-05-21T08:28:10;101618.16;;;20.62;97.04
10852;BME280;5479;52.046;6.314;2023-05-21T08:30:38;101611.59;;;20.55;100.00
10852;BME280;5479;52.046;6.314;2023-05-21T08:33:06;101612.41;;;20.85;95.56
10852;BME280;5479;52.046;6.314;2023-05-21T08:35:35;101609.41;;;20.79;96.35
10852;BME280;5479;52.046;6.314;2023-05-21T08:38:03;101612.25;;;20.87;95.48
10852;BME280;5479;52.046;6.314;2023-05-21T08:40:31;101611.03;;;20.91;94.21
10852;BME280;5479;52.046;6.314;2023-05-21T08:43:00;101608.72;;;21.26;92.03
10852;BME280;5479;52.046;6.314;2023-05-21T08:45:33;101608.13;;;21.23;92.94
10852;BME280;5479;52.046;6.314;2023-05-21T08:48:03;101607.66;;;21.08;93.62
10852;BME280;5479;52.046;6.314;2023-05-21T08:50:32;101607.81;;;21.07;95.48
10852;BME280;5479;52.046;6.314;2023-05-21T08:53:01;101608.44;;;20.50;100.00
10852;BME280;5479;52.046;6.314;2023-05-21T08:55:30;101620.31;;;20.37;99.54
10852;BME280;5479;52.046;6.314;2023-05-21T08:57:59;101609.00;;;20.43;100.00
10852;BME280;5479;52.046;6.314;2023-05-21T09:00:27;101609.66;;;20.66;99.28
10852;BME280;5479;52.046;6.314;2023-05-21T09:02:55;101608.22;;;21.02;94.84
10852;BME280;5479;52.046;6.314;2023-05-21T09:05:33;101606.16;;;21.73;90.27
10852;BME280;5479;52.046;6.314;2023-05-21T09:08:05;101609.84;;;22.00;85.38
10852;BME280;5479;52.046;6.314;2023-05-21T09:10:35;101605.31;;;21.62;86.87
10852;BME280;5479;52.046;6.314;2023-05-21T09:13:05;101607.72;;;21.65;87.21
10852;BME280;5479;52.046;6.314;2023-05-21T09:15:34;101596.44;;;22.18;82.45
10852;BME280;5479;52.046;6.314;2023-05-21T09:18:03;101600.69;;;22.30;82.82
10852;BME280;5479;52.046;6.314;2023-05-21T09:20:31;101590.13;;;22.37;80.33
10852;BME280;5479;52.046;6.314;2023-05-21T09:23:03;101597.19;;;22.47;80.13
10852;BME280;5479;52.046;6.314;2023-05-21T09:25:36;101590.13;;;22.37;79.71
10852;BME280;5479;52.046;6.314;2023-05-21T09:28:10;101593.50;;;22.48;80.05
10852;BME280;5479;52.046;6.314;2023-05-21T09:30:43;101594.06;;;22.89;77.46
10852;BME280;5479;52.046;6.314;2023-05-21T09:33:11;101584.88;;;22.81;77.99
10852;BME280;5479;52.046;6.314;2023-05-21T09:35:45;101583.06;;;23.70;74.58
10852;BME280;5479;52.046;6.314;2023-05-21T09:38:15;101583.72;;;24.08;69.38
10852;BME280;5479;52.046;6.314;2023-05-21T09:40:44;101587.47;;;23.36;70.05
10852;BME280;5479;52.046;6.314;2023-05-21T09:43:13;101585.84;;;23.08;73.80
10852;BME280;5479;52.046;6.314;2023-05-21T09:45:52;101587.28;;;22.85;75.02
10852;BME280;5479;52.046;6.314;2023-05-21T09:48:34;101584.75;;;23.36;73.37
10852;BME280;5479;52.046;6.314;2023-05-21T09:51:11;101585.53;;;23.81;70.70
10852;BME280;5479;52.046;6.314;2023-05-21T09:53:48;101584.69;;;23.63;70.12
10852;BME280;5479;52.046;6.314;2023-05-21T09:56:20;101578.31;;;22.84;75.10
10852;BME280;5479;52.046;6.314;2023-05-21T09:58:53;101572.25;;;23.00;76.46
10852;BME280;5479;52.046;6.314;2023-05-21T10:01:23;101574.34;;;23.06;76.21
10852;BME280;5479;52.046;6.314;2023-05-21T10:03:53;101578.63;;;22.99;77.04
10852;BME280;5479;52.046;6.314;2023-05-21T10:06:24;101580.00;;;22.58;82.34
10852;BME280;5479;52.046;6.314;2023-05-21T10:08:55;101567.31;;;22.58;80.10
10852;BME280;5479;52.046;6.314;2023-05-21T10:11:25;101566.16;;;23.15;77.47
10852;BME280;5479;52.046;6.314;2023-05-21T10:13:56;101569.31;;;22.56;78.67
10852;BME280;5479;52.046;6.314;2023-05-21T10:16:26;101563.63;;;22.59;80.45
10852;BME280;5479;52.046;6.314;2023-05-21T10:18:56;101567.84;;;21.98;83.12
10852;BME280;5479;52.046;6.314;2023-05-21T10:21:25;101563.81;;;22.11;84.94
10852;BME280;5479;52.046;6.314;2023-05-21T10:23:56;101564.34;;;22.89;79.64
10852;BME280;5479;52.046;6.314;2023-05-21T10:26:24;101558.22;;;23.14;75.84
10852;BME280;5479;52.046;6.314;2023-05-21T10:28:55;101540.81;;;22.99;76.55
10852;BME280;5479;52.046;6.314;2023-05-21T10:31:24;101546.63;;;22.49;80.25
10852;BME280;5479;52.046;6.314;2023-05-21T10:33:53;101540.88;;;22.89;82.21
10852;BME280;5479;52.046;6.314;2023-05-21T10:36:22;101546.22;;;22.99;78.24
10852;BME280;5479;52.046;6.314;2023-05-21T10:38:50;101548.31;;;23.75;74.68
10852;BME280;5479;52.046;6.314;2023-05-21T10:41:20;101551.63;;;23.52;73.35
10852;BME280;5479;52.046;6.314;2023-05-21T10:43:56;101535.84;;;23.39;74.72
10852;BME280;5479;52.046;6.314;2023-05-21T10:46:47;101525.81;;;23.75;75.42
10852;BME280;5479;52.046;6.314;2023-05-21T10:49:50;101533.69;;;24.12;70.44
10852;BME280;5479;52.046;6.314;2023-05-21T10:52:33;101531.56;;;24.06;70.59
10852;BME280;5479;52.046;6.314;2023-05-21T10:55:19;101528.31;;;23.33;72.90
10852;BME280;5479;52.046;6.314;2023-05-21T10:58:11;101532.03;;;23.50;74.66
10852;BME280;5479;52.046;6.314;2023-05-21T11:00:43;101522.50;;;23.81;70.92
10852;BME280;5479;52.046;6.314;2023-05-21T11:03:12;101525.94;;;23.91;73.06
10852;BME280;5479;52.046;6.314;2023-05-21T11:05:50;101524.56;;;24.13;69.69
10852;BME280;5479;52.046;6.314;2023-05-21T11:08:23;101519.50;;;25.09;67.09
10852;BME280;5479;52.046;6.314;2023-05-21T11:10:52;101523.53;;;24.89;66.10
10852;BME280;5479;52.046;6.314;2023-05-21T11:13:23;101514.59;;;24.55;64.57
10852;BME280;5479;52.046;6.314;2023-05-21T11:16:13;101524.59;;;23.69;70.93
10852;BME280;5479;52.046;6.314;2023-05-21T11:18:59;101518.97;;;24.48;68.07
10852;BME280;5479;52.046;6.314;2023-05-21T11:21:29;101524.25;;;24.24;68.52
10852;BME280;5479;52.046;6.314;2023-05-21T11:24:17;101526.66;;;24.27;68.95
10852;BME280;5479;52.046;6.314;2023-05-21T11:26:59;101515.25;;;25.07;64.26
10852;BME280;5479;52.046;6.314;2023-05-21T11:29:35;101522.28;;;24.76;65.48
10852;BME280;5479;52.046;6.314;2023-05-21T11:32:07;101519.63;;;24.84;65.77
10852;BME280;5479;52.046;6.314;2023-05-21T11:34:37;101522.59;;;24.05;68.93
10852;BME280;5479;52.046;6.314;2023-05-21T11:37:25;101515.75;;;24.11;71.89
10852;BME280;5479;52.046;6.314;2023-05-21T11:39:57;101506.13;;;24.50;69.72
10852;BME280;5479;52.046;6.314;2023-05-21T11:42:30;101500.34;;;24.45;69.54
10852;BME280;5479;52.046;6.314;2023-05-21T11:45:01;101503.41;;;24.50;65.35
10852;BME280;5479;52.046;6.314;2023-05-21T11:47:30;101499.00;;;24.49;67.36
10852;BME280;5479;52.046;6.314;2023-05-21T11:49:59;101495.34;;;24.66;66.66
10852;BME280;5479;52.046;6.314;2023-05-21T11:52:28;101496.13;;;24.09;69.74
10852;BME280;5479;52.046;6.314;2023-05-21T11:54:57;101498.63;;;24.36;71.50
10852;BME280;5479;52.046;6.314;2023-05-21T11:57:27;101497.75;;;24.35;68.27
10852;BME280;5479;52.046;6.314;2023-05-21T11:59:58;101494.34;;;24.25;69.19
10852;BME280;5479;52.046;6.314;2023-05-21T12:02:30;101489.13;;;24.32;70.86
10852;BME280;5479;52.046;6.314;2023-05-21T12:04:58;101496.16;;;24.50;69.81
10852;BME280;5479;52.046;6.314;2023-05-21T12:07:27;101492.50;;;24.26;70.50
10852;BME280;5479;52.046;6.314;2023-05-21T12:09:57;101501.06;;;24.21;71.38
10852;BME280;5479;52.046;6.314;2023-05-21T12:12:26;101475.44;;;24.83;69.13
10852;BME280;5479;52.046;6.314;2023-05-21T12:14:54;101491.50;;;24.35;70.70
10852;BME280;5479;52.046;6.314;2023-05-21T12:17:23;101487.78;;;24.36;70.65
10852;BME280;5479;52.046;6.314;2023-05-21T12:19:54;101490.59;;;24.60;67.83
10852;BME280;5479;52.046;6.314;2023-05-21T12:22:22;101492.69;;;24.07;70.23
10852;BME280;5479;52.046;6.314;2023-05-21T12:24:50;101489.81;;;24.08;70.15
10852;BME280;5479;52.046;6.314;2023-05-21T12:27:21;101479.41;;;24.55;73.13
10852;BME280;5479;52.046;6.314;2023-05-21T12:29:50;101478.38;;;24.56;68.53
10852;BME280;5479;52.046;6.314;2023-05-21T12:32:19;101476.41;;;24.74;67.82
10852;BME280;5479;52.046;6.314;2023-05-21T12:34:48;101482.22;;;24.45;69.75
10852;BME280;5479;52.046;6.314;2023-05-21T12:37:20;101470.38;;;24.38;71.21
10852;BME280;5479;52.046;6.314;2023-05-21T12:39:49;101474.75;;;24.06;72.33
10852;BME280;5479;52.046;6.314;2023-05-21T12:42:23;101467.25;;;24.17;76.03
10852;BME280;5479;52.046;6.314;2023-05-21T12:44:52;101463.81;;;23.81;73.34
10852;BME280;5479;52.046;6.314;2023-05-21T12:47:22;101465.06;;;23.61;74.94
10852;BME280;5479;52.046;6.314;2023-05-21T12:49:55;101465.72;;;23.63;75.02
10852;BME280;5479;52.046;6.314;2023-05-21T12:52:26;101463.88;;;23.64;76.01
10852;BME280;5479;52.046;6.314;2023-05-21T12:54:55;101470.03;;;23.74;76.43
10852;BME280;5479;52.046;6.314;2023-05-21T12:57:24;101455.22;;;23.86;76.06
10852;BME280;5479;52.046;6.314;2023-05-21T12:59:54;101462.47;;;23.60;76.23
10852;BME280;5479;52.046;6.314;2023-05-21T13:02:24;101454.88;;;23.55;78.79
10852;BME280;5479;52.046;6.314;2023-05-21T13:04:55;101454.31;;;23.52;76.09
10852;BME280;5479;52.046;6.314;2023-05-21T13:07:26;101454.66;;;23.49;80.21